sensor_id;sensor_type;location;lat;lon;timestamp;temperature;humidity
4429;DHT22;2227;47.810;8.810;2023-10-31T04:49:22;10.30;99.90
4429;DHT22;2227;47.810;8.810;2023-10-31T04:51:48;10.20;99.90
4429;DHT22;2227;47.810;8.810;2023-10-31T04:54:15;10.20;99.90
4429;DHT22;2227;47.810;8.810;2023-10-31T04:56:42;10.20;99.90
4429;DHT22;2227;47.810;8.810;2023-10-31T04:59:09;10.20;99.90
4429;DHT22;2227;47.810;8.810;2023-10-31T05:01:35;10.40;99.90
4429;DHT22;2227;47.810;8.810;2023-10-31T05:04:02;10.50;99.90
4429;DHT22;2227;47.810;8.810;2023-10-31T05:06:38;10.50;99.90
4429;DHT22;2227;47.810;8.810;2023-10-31T05:09:05;10.60;99.90
4429;DHT22;2227;47.810;8.810;2023-10-31T05:11:32;10.60;99.90
4429;DHT22;2227;47.810;8.810;2023-10-31T05:13:59;10.60;99.90
4429;DHT22;2227;47.810;8.810;2023-10-31T05:16:26;10.60;99.90
4429;DHT22;2227;47.810;8.810;2023-10-31T05:18:53;10.50;99.90
4429;DHT22;2227;47.810;8.810;2023-10-31T05:21:20;10.30;99.90
4429;DHT22;2227;47.810;8.810;2023-10-31T05:23:47;10.10;99.90
4429;DHT22;2227;47.810;8.810;2023-10-31T05:26:14;10.00;99.90
4429;DHT22;2227;47.810;8.810;2023-10-31T05:28:41;10.00;99.90
4429;DHT22;2227;47.810;8.810;2023-10-31T05:31:08;10.10;99.90
4429;DHT22;2227;47.810;8.810;2023-10-31T05:33:34;10.10;99.90
4429;DHT22;2227;47.810;8.810;2023-10-31T05:36:01;10.10;99.90
4429;DHT22;2227;47.810;8.810;2023-10-31T05:38:28;10.20;99.90
4429;DHT22;2227;47.810;8.810;2023-10-31T05:40:55;10.30;99.90
4429;DHT22;2227;47.810;8.810;2023-10-31T05:43:22;10.30;99.90
4429;DHT22;2227;47.810;8.810;2023-10-31T05:45:49;10.20;99.90
4429;DHT22;2227;47.810;8.810;2023-10-31T05:48:15;10.20;99.90
4429;DHT22;2227;47.810;8.810;2023-10-31T05:50:43;10.20;99.90
4429;DHT22;2227;47.810;8.810;2023-10-31T05:53:10;10.20;99.90
4429;DHT22;2227;47.810;8.810;2023-10-31T05:55:41;10.10;99.90
4429;DHT22;2227;47.810;8.810;2023-10-31T05:58:08;10.10;99.90
4429;DHT22;2227;47.810;8.810;2023-10-31T06:00:35;10.20;99.90
4429;DHT22;2227;47.810;8.810;2023-10-31T06:03:02;10.20;99.90
4429;DHT22;2227;47.810;8.810;2023-10-31T06:05:29;10.30;99.90
4429;DHT22;2227;47.810;8.810;2023-10-31T06:07:56;10.40;99.90
4429;DHT22;2227;47.810;8.810;2023-10-31T06:10:22;10.40;99.90
4429;DHT22;2227;47.810;8.810;2023-10-31T06:12:49;10.40;99.90
4429;DHT22;2227;47.810;8.810;2023-10-31T06:15:16;10.40;99.90
4429;DHT22;2227;47.810;8.810;2023-10-31T06:17:43;10.40;99.90
4429;DHT22;2227;47.810;8.810;2023-10-31T06:20:10;10.40;99.90
4429;DHT22;2227;47.810;8.810;2023-10-31T06:22:37;10.40;99.90
4429;DHT22;2227;47.810;8.810;2023-10-31T06:25:04;10.50;99.90
4429;DHT22;2227;47.810;8.810;2023-10-31T06:27:31;10.60;99.90
4429;DHT22;2227;47.810;8.810;2023-10-31T06:29:58;10.70;99.90
4429;DHT22;2227;47.810;8.810;2023-10-31T06:32:42;10.60;99.90
4429;DHT22;2227;47.810;8.810;2023-10-31T06:35:09;10.60;99.90
4429;DHT22;2227;47.810;8.810;2023-10-31T06:37:36;10.60;99.90
4429;DHT22;2227;47.810;8.810;2023-10-31T06:40:03;10.50;99.90
4429;DHT22;2227;47.810;8.810;2023-10-31T06:42:30;10.20;99.90
4429;DHT22;2227;47.810;8.810;2023-10-31T06:44:57;10.20;99.90
4429;DHT22;2227;47.810;8.810;2023-10-31T06:47:24;10.20;99.90
4429;DHT22;2227;47.810;8.810;2023-10-31T06:49:51;10.20;99.90
4429;DHT22;2227;47.810;8.810;2023-10-31T06:52:18;10.40;99.90
4429;DHT22;2227;47.810;8.810;2023-10-31T06:54:45;10.50;99.90
4429;DHT22;2227;47.810;8.810;2023-10-31T06:57:11;10.70;99.90
4429;DHT22;2227;47.810;8.810;2023-10-31T06:59:38;10.60;99.90
4429;DHT22;2227;47.810;8.810;2023-10-31T07:02:05;10.40;99.90
4429;DHT22;2227;47.810;8.810;2023-10-31T07:04:32;10.30;99.90
4429;DHT22;2227;47.810;8.810;2023-10-31T07:06:59;10.20;99.90
4429;DHT22;2227;47.810;8.810;2023-10-31T07:09:27;10.10;99.90
4429;DHT22;2227;47.810;8.810;2023-10-31T07:11:53;10.20;99.90
4429;DHT22;2227;47.810;8.810;2023-10-31T07:14:20;10.40;99.90
4429;DHT22;2227;47.810;8.810;2023-10-31T07:16:48;10.40;99.90
4429;DHT22;2227;47.810;8.810;2023-10-31T07:19:15;10.50;99.90
4429;DHT22;2227;47.810;8.810;2023-10-31T07:21:42;10.60;99.90
4429;DHT22;2227;47.810;8.810;2023-10-31T07:24:09;10.60;99.90
4429;DHT22;2227;47.810;8.810;2023-10-31T07:26:36;10.60;99.90
4429;DHT22;2227;47.810;8.810;2023-10-31T07:29:03;10.80;99.90
4429;DHT22;2227;47.810;8.810;2023-10-31T07:31:30;10.90;99.90
4429;DHT22;2227;47.810;8.810;2023-10-31T07:33:56;10.80;99.90
4429;DHT22;2227;47.810;8.810;2023-10-31T07:36:23;10.90;99.90
4429;DHT22;2227;47.810;8.810;2023-10-31T07:38:50;10.80;99.90
4429;DHT22;2227;47.810;8.810;2023-10-31T07:41:17;10.80;99.90
4429;DHT22;2227;47.810;8.810;2023-10-31T07:43:44;10.80;99.90
4429;DHT22;2227;47.810;8.810;2023-10-31T07:46:10;10.90;99.90
4429;DHT22;2227;47.810;8.810;2023-10-31T07:48:37;11.10;99.90
4429;DHT22;2227;47.810;8.810;2023-10-31T07:51:04;11.30;99.90
4429;DHT22;2227;47.810;8.810;2023-10-31T07:53:31;11.30;99.90
4429;DHT22;2227;47.810;8.810;2023-10-31T07:55:58;11.40;99.90
4429;DHT22;2227;47.810;8.810;2023-10-31T07:58:25;11.50;99.90
4429;DHT22;2227;47.810;8.810;2023-10-31T08:00:51;11.40;99.90
4429;DHT22;2227;47.810;8.810;2023-10-31T08:03:18;11.10;99.90
4429;DHT22;2227;47.810;8.810;2023-10-31T08:05:45;11.00;99.90
4429;DHT22;2227;47.810;8.810;2023-10-31T08:08:12;11.10;99.90
4429;DHT22;2227;47.810;8.810;2023-10-31T08:10:39;11.20;99.90
4429;DHT22;2227;47.810;8.810;2023-10-31T08:13:06;11.00;99.90
4429;DHT22;2227;47.810;8.810;2023-10-31T08:15:32;11.20;99.90
4429;DHT22;2227;47.810;8.810;2023-10-31T08:17:59;11.30;99.90
4429;DHT22;2227;47.810;8.810;2023-10-31T08:20:26;11.10;99.90
4429;DHT22;2227;47.810;8.810;2023-10-31T08:22:59;11.10;99.90
4429;DHT22;2227;47.810;8.810;2023-10-31T08:25:26;11.10;99.90
4429;DHT22;2227;47.810;8.810;2023-10-31T08:27:52;11.20;99.90
4429;DHT22;2227;47.810;8.810;2023-10-31T08:30:19;11.20;99.90
4429;DHT22;2227;47.810;8.810;2023-10-31T08:32:47;11.10;99.90
4429;DHT22;2227;47.810;8.810;2023-10-31T08:35:14;11.20;99.90
4429;DHT22;2227;47.810;8.810;2023-10-31T08:37:41;11.30;99.90
4429;DHT22;2227;47.810;8.810;2023-10-31T08:40:09;11.30;99.90
4429;DHT22;2227;47.810;8.810;2023-10-31T08:42:37;11.20;99.90
4429;DHT22;2227;47.810;8.810;2023-10-31T08:45:04;11.40;99.90
4429;DHT22;2227;47.810;8.810;2023-10-31T08:47:31;11.50;99.90
4429;DHT22;2227;47.810;8.810;2023-10-31T08:49:58;11.70;99.90
4429;DHT22;2227;47.810;8.810;2023-10-31T08:52:25;11.50;99.90
4429;DHT22;2227;47.810;8.810;2023-10-31T08:54:52;11.60;99.90
4429;DHT22;2227;47.810;8.810;2023-10-31T08:57:19;11.80;99.90
4429;DHT22;2227;47.810;8.810;2023-10-31T08:59:45;12.10;99.90
4429;DHT22;2227;47.810;8.810;2023-10-31T09:02:12;12.30;99.90
4429;DHT22;2227;47.810;8.810;2023-10-31T09:04:39;12.60;99.90
4429;DHT22;2227;47.810;8.810;2023-10-31T09:07:06;12.70;99.90
4429;DHT22;2227;47.810;8.810;2023-10-31T09:09:32;12.70;99.90
4429;DHT22;2227;47.810;8.810;2023-10-31T09:11:59;12.70;99.90
4429;DHT22;2227;47.810;8.810;2023-10-31T09:14:26;12.60;99.90
4429;DHT22;2227;47.810;8.810;2023-10-31T09:16:53;12.40;99.90
4429;DHT22;2227;47.810;8.810;2023-10-31T09:19:20;12.10;99.90
4429;DHT22;2227;47.810;8.810;2023-10-31T09:21:47;12.00;99.90
4429;DHT22;2227;47.810;8.810;2023-10-31T09:24:13;12.20;99.90
4429;DHT22;2227;47.810;8.810;2023-10-31T09:26:43;12.40;99.90
4429;DHT22;2227;47.810;8.810;2023-10-31T09:29:11;12.70;99.90
4429;DHT22;2227;47.810;8.810;2023-10-31T09:31:54;12.90;99.90
4429;DHT22;2227;47.810;8.810;2023-10-31T09:34:20;12.80;99.90
4429;DHT22;2227;47.810;8.810;2023-10-31T09:36:49;12.60;99.90
4429;DHT22;2227;47.810;8.810;2023-10-31T09:39:26;12.50;99.90
4429;DHT22;2227;47.810;8.810;2023-10-31T09:42:01;12.70;99.90
4429;DHT22;2227;47.810;8.810;2023-10-31T09:44:28;12.90;99.90
4429;DHT22;2227;47.810;8.810;2023-10-31T09:46:55;12.90;99.90
4429;DHT22;2227;47.810;8.810;2023-10-31T09:49:23;12.70;99.90
4429;DHT22;2227;47.810;8.810;2023-10-31T09:51:50;12.70;99.90
4429;DHT22;2227;47.810;8.810;2023-10-31T09:54:17;12.60;99.90
4429;DHT22;2227;47.810;8.810;2023-10-31T09:56:44;13.00;99.90
4429;DHT22;2227;47.810;8.810;2023-10-31T09:59:14;12.90;99.90
4429;DHT22;2227;47.810;8.810;2023-10-31T10:01:41;12.70;99.90
4429;DHT22;2227;47.810;8.810;2023-10-31T10:04:09;12.80;99.90
4429;DHT22;2227;47.810;8.810;2023-10-31T10:06:58;12.60;99.90
4429;DHT22;2227;47.810;8.810;2023-10-31T10:09:25;12.40;99.90
4429;DHT22;2227;47.810;8.810;2023-10-31T10:11:52;12.60;99.90
4429;DHT22;2227;47.810;8.810;2023-10-31T10:14:25;12.80;99.90
4429;DHT22;2227;47.810;8.810;2023-10-31T10:16:55;13.10;99.90
4429;DHT22;2227;47.810;8.810;2023-10-31T10:19:22;13.40;99.90
4429;DHT22;2227;47.810;8.810;2023-10-31T10:21:54;13.20;99.90
4429;DHT22;2227;47.810;8.810;2023-10-31T10:24:23;13.20;99.90
4429;DHT22;2227;47.810;8.810;2023-10-31T10:26:51;13.60;99.90
4429;DHT22;2227;47.810;8.810;2023-10-31T10:29:18;13.40;99.90
4429;DHT22;2227;47.810;8.810;2023-10-31T10:31:45;13.70;99.90
4429;DHT22;2227;47.810;8.810;2023-10-31T10:34:16;13.90;99.90
4429;DHT22;2227;47.810;8.810;2023-10-31T10:36:48;14.80;99.90
4429;DHT22;2227;47.810;8.810;2023-10-31T10:39:20;15.40;99.90
4429;DHT22;2227;47.810;8.810;2023-10-31T10:42:00;15.70;99.90
4429;DHT22;2227;47.810;8.810;2023-10-31T10:44:34;15.30;99.90
4429;DHT22;2227;47.810;8.810;2023-10-31T10:47:06;15.20;99.90
4429;DHT22;2227;47.810;8.810;2023-10-31T10:49:37;15.20;99.90
4429;DHT22;2227;47.810;8.810;2023-10-31T10:57:31;16.50;99.90
4429;DHT22;2227;47.810;8.810;2023-10-31T11:00:02;15.90;99.90
4429;DHT22;2227;47.810;8.810;2023-10-31T11:02:31;16.30;99.90
4429;DHT22;2227;47.810;8.810;2023-10-31T11:04:58;17.10;99.90
4429;DHT22;2227;47.810;8.810;2023-10-31T11:07:27;16.90;99.90
4429;DHT22;2227;47.810;8.810;2023-10-31T11:09:55;16.40;99.90
4429;DHT22;2227;47.810;8.810;2023-10-31T11:12:22;15.90;99.90
4429;DHT22;2227;47.810;8.810;2023-10-31T11:14:50;15.70;99.90
4429;DHT22;2227;47.810;8.810;2023-10-31T11:17:26;15.10;99.90
4429;DHT22;2227;47.810;8.810;2023-10-31T11:19:55;14.80;99.90
4429;DHT22;2227;47.810;8.810;2023-10-31T11:22:22;14.40;99.90
4429;DHT22;2227;47.810;8.810;2023-10-31T11:24:51;14.20;99.90
4429;DHT22;2227;47.810;8.810;2023-10-31T11:27:19;13.90;99.90
4429;DHT22;2227;47.810;8.810;2023-10-31T11:29:47;13.90;99.90
4429;DHT22;2227;47.810;8.810;2023-10-31T11:32:14;13.90;99.90
4429;DHT22;2227;47.810;8.810;2023-10-31T11:34:42;13.90;99.90
4429;DHT22;2227;47.810;8.810;2023-10-31T11:37:27;13.80;99.90
4429;DHT22;2227;47.810;8.810;2023-10-31T11:42:41;13.70;99.90
4429;DHT22;2227;47.810;8.810;2023-10-31T11:45:08;13.80;99.90
4429;DHT22;2227;47.810;8.810;2023-10-31T11:47:51;13.70;99.90
4429;DHT22;2227;47.810;8.810;2023-10-31T11:50:18;13.60;99.90
4429;DHT22;2227;47.810;8.810;2023-10-31T11:52:45;13.80;99.90
4429;DHT22;2227;47.810;8.810;2023-10-31T11:55:24;13.90;99.90
4429;DHT22;2227;47.810;8.810;2023-10-31T11:57:51;13.80;99.90
4429;DHT22;2227;47.810;8.810;2023-10-31T12:00:22;13.80;99.90
4429;DHT22;2227;47.810;8.810;2023-10-31T12:05:26;13.50;99.90
4429;DHT22;2227;47.810;8.810;2023-10-31T12:07:53;13.70;99.90
4429;DHT22;2227;47.810;8.810;2023-10-31T12:10:25;13.80;99.90
4429;DHT22;2227;47.810;8.810;2023-10-31T12:12:53;13.90;99.90
4429;DHT22;2227;47.810;8.810;2023-10-31T12:15:20;14.10;99.90
4429;DHT22;2227;47.810;8.810;2023-10-31T12:17:46;14.20;99.90
4429;DHT22;2227;47.810;8.810;2023-10-31T12:20:13;14.30;99.90
4429;DHT22;2227;47.810;8.810;2023-10-31T12:22:40;14.30;99.90
4429;DHT22;2227;47.810;8.810;2023-10-31T12:25:08;14.50;99.90
4429;DHT22;2227;47.810;8.810;2023-10-31T12:28:01;14.80;99.90
4429;DHT22;2227;47.810;8.810;2023-10-31T12:30:28;14.90;99.90
4429;DHT22;2227;47.810;8.810;2023-10-31T12:32:55;14.70;99.90
4429;DHT22;2227;47.810;8.810;2023-10-31T12:35:24;14.30;99.90
4429;DHT22;2227;47.810;8.810;2023-10-31T12:37:52;14.20;99.90
4429;DHT22;2227;47.810;8.810;2023-10-31T12:40:20;14.20;99.90
4429;DHT22;2227;47.810;8.810;2023-10-31T12:42:48;14.30;99.90
4429;DHT22;2227;47.810;8.810;2023-10-31T12:45:18;14.20;99.90
4429;DHT22;2227;47.810;8.810;2023-10-31T12:47:59;14.20;99.90
4429;DHT22;2227;47.810;8.810;2023-10-31T12:50:26;14.50;99.90
4429;DHT22;2227;47.810;8.810;2023-10-31T12:52:54;14.40;99.90
4429;DHT22;2227;47.810;8.810;2023-10-31T12:55:23;14.40;99.90
4429;DHT22;2227;47.810;8.810;2023-10-31T12:57:51;14.30;99.90
4429;DHT22;2227;47.810;8.810;2023-10-31T13:00:19;13.90;99.90
4429;DHT22;2227;47.810;8.810;2023-10-31T13:02:52;14.10;99.90
4429;DHT22;2227;47.810;8.810;2023-10-31T13:05:26;14.20;99.90
4429;DHT22;2227;47.810;8.810;2023-10-31T13:07:54;14.20;99.90
4429;DHT22;2227;47.810;8.810;2023-10-31T13:10:26;14.10;99.90
4429;DHT22;2227;47.810;8.810;2023-10-31T13:12:53;14.00;99.90
4429;DHT22;2227;47.810;8.810;2023-10-31T13:15:22;13.80;99.90
4429;DHT22;2227;47.810;8.810;2023-10-31T13:17:49;13.70;99.90
4429;DHT22;2227;47.810;8.810;2023-10-31T13:20:18;13.50;99.90
4429;DHT22;2227;47.810;8.810;2023-10-31T13:22:46;13.20;99.90
4429;DHT22;2227;47.810;8.810;2023-10-31T13:25:14;13.20;99.90
4429;DHT22;2227;47.810;8.810;2023-10-31T13:27:42;13.20;99.90
4429;DHT22;2227;47.810;8.810;2023-10-31T13:30:12;13.00;99.90
4429;DHT22;2227;47.810;8.810;2023-10-31T13:32:40;12.80;99.90
4429;DHT22;2227;47.810;8.810;2023-10-31T13:35:07;12.70;99.90
4429;DHT22;2227;47.810;8.810;2023-10-31T13:37:38;12.60;99.90
4429;DHT22;2227;47.810;8.810;2023-10-31T13:40:06;12.60;99.90
4429;DHT22;2227;47.810;8.810;2023-10-31T13:42:35;12.40;99.90
4429;DHT22;2227;47.810;8.810;2023-10-31T13:45:03;12.60;99.90
4429;DHT22;2227;47.810;8.810;2023-10-31T13:47:33;12.70;99.90
4429;DHT22;2227;47.810;8.810;2023-10-31T13:49:59;12.70;99.90
4429;DHT22;2227;47.810;8.810;2023-10-31T13:52:26;12.70;99.90
4429;DHT22;2227;47.810;8.810;2023-10-31T13:54:53;12.50;99.90
4429;DHT22;2227;47.810;8.810;2023-10-31T13:57:20;12.70;99.90
4429;DHT22;2227;47.810;8.810;2023-10-31T13:59:47;12.90;99.90
4429;DHT22;2227;47.810;8.810;2023-10-31T14:02:13;13.10;99.90
4429;DHT22;2227;47.810;8.810;2023-10-31T14:04:40;13.20;99.90
4429;DHT22;2227;47.810;8.810;2023-10-31T14:07:07;13.20;99.90
4429;DHT22;2227;47.810;8.810;2023-10-31T14:09:34;13.20;99.90
4429;DHT22;2227;47.810;8.810;2023-10-31T14:12:01;13.30;99.90
4429;DHT22;2227;47.810;8.810;2023-10-31T14:14:27;13.30;99.90
4429;DHT22;2227;47.810;8.810;2023-10-31T14:16:54;13.30;99.90
4429;DHT22;2227;47.810;8.810;2023-10-31T14:19:21;13.30;99.90
4429;DHT22;2227;47.810;8.810;2023-10-31T14:21:48;13.20;99.90
4429;DHT22;2227;47.810;8.810;2023-10-31T14:24:15;13.20;99.90
4429;DHT22;2227;47.810;8.810;2023-10-31T14:26:43;12.80;99.90
4429;DHT22;2227;47.810;8.810;2023-10-31T14:29:10;12.70;99.90
4429;DHT22;2227;47.810;8.810;2023-10-31T14:31:41;12.50;99.90
4429;DHT22;2227;47.810;8.810;2023-10-31T14:34:09;12.70;99.90
4429;DHT22;2227;47.810;8.810;2023-10-31T14:36:36;12.90;99.90
4429;DHT22;2227;47.810;8.810;2023-10-31T14:39:03;12.90;99.90
4429;DHT22;2227;47.810;8.810;2023-10-31T14:41:31;12.60;99.90
4429;DHT22;2227;47.810;8.810;2023-10-31T14:44:00;12.40;99.90
4429;DHT22;2227;47.810;8.810;2023-10-31T14:46:28;12.30;99.90
4429;DHT22;2227;47.810;8.810;2023-10-31T14:48:55;12.40;99.90
4429;DHT22;2227;47.810;8.810;2023-10-31T14:51:22;12.50;99.90
4429;DHT22;2227;47.810;8.810;2023-10-31T14:53:49;12.50;99.90
4429;DHT22;2227;47.810;8.810;2023-10-31T14:56:16;12.30;99.90
4429;DHT22;2227;47.810;8.810;2023-10-31T14:58:43;12.30;99.90
4429;DHT22;2227;47.810;8.810;2023-10-31T15:01:10;12.40;99.90
4429;DHT22;2227;47.810;8.810;2023-10-31T15:03:37;12.40;99.90
4429;DHT22;2227;47.810;8.810;2023-10-31T15:06:04;12.60;99.90
4429;DHT22;2227;47.810;8.810;2023-10-31T15:08:31;12.70;99.90
4429;DHT22;2227;47.810;8.810;2023-10-31T15:10:58;12.80;99.90
4429;DHT22;2227;47.810;8.810;2023-10-31T15:13:25;12.70;99.90
4429;DHT22;2227;47.810;8.810;2023-10-31T15:15:52;12.60;99.90
4429;DHT22;2227;47.810;8.810;2023-10-31T15:18:19;12.50;99.90
4429;DHT22;2227;47.810;8.810;2023-10-31T15:20:46;12.50;99.90
4429;DHT22;2227;47.810;8.810;2023-10-31T15:23:13;12.30;99.90
4429;DHT22;2227;47.810;8.810;2023-10-31T15:25:41;12.30;99.90
4429;DHT22;2227;47.810;8.810;2023-10-31T15:28:08;12.40;99.90
4429;DHT22;2227;47.810;8.810;2023-10-31T15:30:34;12.30;99.90
4429;DHT22;2227;47.810;8.810;2023-10-31T15:33:01;12.20;99.90
4429;DHT22;2227;47.810;8.810;2023-10-31T15:35:28;12.20;99.90
4429;DHT22;2227;47.810;8.810;2023-10-31T15:37:55;12.30;99.90
4429;DHT22;2227;47.810;8.810;2023-10-31T15:40:21;12.40;99.90
4429;DHT22;2227;47.810;8.810;2023-10-31T15:42:48;12.50;99.90
4429;DHT22;2227;47.810;8.810;2023-10-31T15:45:15;12.20;99.90
4429;DHT22;2227;47.810;8.810;2023-10-31T15:47:41;12.20;99.90
4429;DHT22;2227;47.810;8.810;2023-10-31T15:50:08;12.10;99.90
4429;DHT22;2227;47.810;8.810;2023-10-31T15:52:36;12.20;99.90
4429;DHT22;2227;47.810;8.810;2023-10-31T15:55:03;12.00;99.90
4429;DHT22;2227;47.810;8.810;2023-10-31T15:57:30;11.70;99.90
4429;DHT22;2227;47.810;8.810;2023-10-31T15:59:57;11.70;99.90
4429;DHT22;2227;47.810;8.810;2023-10-31T16:02:25;11.40;99.90
4429;DHT22;2227;47.810;8.810;2023-10-31T16:04:52;11.40;99.90
4429;DHT22;2227;47.810;8.810;2023-10-31T16:07:19;11.30;99.90
4429;DHT22;2227;47.810;8.810;2023-10-31T16:09:46;11.30;99.90
4429;DHT22;2227;47.810;8.810;2023-10-31T16:12:13;11.20;99.90
4429;DHT22;2227;47.810;8.810;2023-10-31T16:14:42;11.00;99.90
4429;DHT22;2227;47.810;8.810;2023-10-31T16:17:08;11.00;99.90
4429;DHT22;2227;47.810;8.810;2023-10-31T16:19:35;11.00;99.90
4429;DHT22;2227;47.810;8.810;2023-10-31T16:22:02;11.00;99.90
4429;DHT22;2227;47.810;8.810;2023-10-31T16:24:29;11.30;99.90
4429;DHT22;2227;47.810;8.810;2023-10-31T16:26:55;11.50;99.90
4429;DHT22;2227;47.810;8.810;2023-10-31T16:29:22;11.20;99.90
4429;DHT22;2227;47.810;8.810;2023-10-31T16:31:49;11.30;99.90
4429;DHT22;2227;47.810;8.810;2023-10-31T16:34:15;11.50;99.90
4429;DHT22;2227;47.810;8.810;2023-10-31T16:36:43;11.40;99.90
4429;DHT22;2227;47.810;8.810;2023-10-31T16:39:10;11.30;99.90
4429;DHT22;2227;47.810;8.810;2023-10-31T16:41:38;11.40;99.90
4429;DHT22;2227;47.810;8.810;2023-10-31T16:44:05;11.50;99.90
4429;DHT22;2227;47.810;8.810;2023-10-31T16:46:32;11.60;99.90
4429;DHT22;2227;47.810;8.810;2023-10-31T16:48:58;11.60;99.90
4429;DHT22;2227;47.810;8.810;2023-10-31T16:51:26;11.60;99.90
4429;DHT22;2227;47.810;8.810;2023-10-31T16:53:53;11.40;99.90
4429;DHT22;2227;47.810;8.810;2023-10-31T16:56:20;11.30;99.90
4429;DHT22;2227;47.810;8.810;2023-10-31T16:58:48;11.20;99.90
4429;DHT22;2227;47.810;8.810;2023-10-31T17:01:14;11.20;99.90
4429;DHT22;2227;47.810;8.810;2023-10-31T17:03:41;11.10;99.90
4429;DHT22;2227;47.810;8.810;2023-10-31T17:06:08;11.10;99.90
4429;DHT22;2227;47.810;8.810;2023-10-31T17:08:38;11.00;99.90
4429;DHT22;2227;47.810;8.810;2023-10-31T17:11:06;11.00;99.90
4429;DHT22;2227;47.810;8.810;2023-10-31T17:13:33;11.00;99.90
4429;DHT22;2227;47.810;8.810;2023-10-31T17:16:01;10.90;99.90
4429;DHT22;2227;47.810;8.810;2023-10-31T17:18:29;10.90;99.90
4429;DHT22;2227;47.810;8.810;2023-10-31T17:20:56;10.70;99.90
4429;DHT22;2227;47.810;8.810;2023-10-31T17:23:23;10.70;99.90
4429;DHT22;2227;47.810;8.810;2023-10-31T17:25:51;10.70;99.90
4429;DHT22;2227;47.810;8.810;2023-10-31T17:28:18;10.60;99.90
4429;DHT22;2227;47.810;8.810;2023-10-31T17:30:45;10.80;99.90
4429;DHT22;2227;47.810;8.810;2023-10-31T17:33:12;10.80;99.90
4429;DHT22;2227;47.810;8.810;2023-10-31T17:35:40;10.80;99.90
4429;DHT22;2227;47.810;8.810;2023-10-31T17:38:07;10.80;99.90
4429;DHT22;2227;47.810;8.810;2023-10-31T17:40:35;10.80;99.90
4429;DHT22;2227;47.810;8.810;2023-10-31T17:43:02;10.90;99.90
4429;DHT22;2227;47.810;8.810;2023-10-31T17:45:28;11.00;99.90
4429;DHT22;2227;47.810;8.810;2023-10-31T17:47:55;11.00;99.90
4429;DHT22;2227;47.810;8.810;2023-10-31T17:50:23;10.90;99.90
4429;DHT22;2227;47.810;8.810;2023-10-31T17:52:50;10.90;99.90
4429;DHT22;2227;47.810;8.810;2023-10-31T17:55:16;10.80;99.90
4429;DHT22;2227;47.810;8.810;2023-10-31T17:57:46;10.90;99.90
4429;DHT22;2227;47.810;8.810;2023-10-31T18:00:13;10.80;99.90
4429;DHT22;2227;47.810;8.810;2023-10-31T18:02:42;10.80;99.90
4429;DHT22;2227;47.810;8.810;2023-10-31T18:05:08;10.80;99.90
4429;DHT22;2227;47.810;8.810;2023-10-31T18:07:36;10.80;99.90
4429;DHT22;2227;47.810;8.810;2023-10-31T18:10:04;10.80;99.90
4429;DHT22;2227;47.810;8.810;2023-10-31T18:12:31;10.90;99.90
4429;DHT22;2227;47.810;8.810;2023-10-31T18:14:58;10.90;99.90
4429;DHT22;2227;47.810;8.810;2023-10-31T18:17:25;10.90;99.90
4429;DHT22;2227;47.810;8.810;2023-10-31T18:19:52;10.90;99.90
4429;DHT22;2227;47.810;8.810;2023-10-31T18:22:18;10.80;99.90
4429;DHT22;2227;47.810;8.810;2023-10-31T18:24:46;10.80;99.90
4429;DHT22;2227;47.810;8.810;2023-10-31T18:27:13;10.90;99.90
4429;DHT22;2227;47.810;8.810;2023-10-31T18:29:40;10.90;99.90
4429;DHT22;2227;47.810;8.810;2023-10-31T18:32:06;10.80;99.90
4429;DHT22;2227;47.810;8.810;2023-10-31T18:34:33;10.80;99.90
4429;DHT22;2227;47.810;8.810;2023-10-31T18:37:00;10.90;99.90
4429;DHT22;2227;47.810;8.810;2023-10-31T18:39:26;10.80;99.90
4429;DHT22;2227;47.810;8.810;2023-10-31T18:41:53;10.90;99.90
4429;DHT22;2227;47.810;8.810;2023-10-31T18:44:35;11.20;99.90
4429;DHT22;2227;47.810;8.810;2023-10-31T18:47:15;11.20;99.90
4429;DHT22;2227;47.810;8.810;2023-10-31T18:49:42;11.10;99.90
4429;DHT22;2227;47.810;8.810;2023-10-31T18:52:09;11.00;99.90
4429;DHT22;2227;47.810;8.810;2023-10-31T18:54:36;11.10;99.90
4429;DHT22;2227;47.810;8.810;2023-10-31T18:57:03;11.10;99.90
4429;DHT22;2227;47.810;8.810;2023-10-31T18:59:29;11.30;99.90
4429;DHT22;2227;47.810;8.810;2023-10-31T19:02:00;11.30;99.90
4429;DHT22;2227;47.810;8.810;2023-10-31T19:04:27;11.30;99.90
4429;DHT22;2227;47.810;8.810;2023-10-31T19:06:54;11.30;99.90
4429;DHT22;2227;47.810;8.810;2023-10-31T19:09:21;11.50;99.90
4429;DHT22;2227;47.810;8.810;2023-10-31T19:11:48;11.40;99.90
4429;DHT22;2227;47.810;8.810;2023-10-31T19:14:15;11.40;99.90
4429;DHT22;2227;47.810;8.810;2023-10-31T19:16:43;11.30;99.90
4429;DHT22;2227;47.810;8.810;2023-10-31T19:19:09;11.40;99.90
4429;DHT22;2227;47.810;8.810;2023-10-31T19:21:36;11.40;99.90
4429;DHT22;2227;47.810;8.810;2023-10-31T19:24:03;11.60;99.90
4429;DHT22;2227;47.810;8.810;2023-10-31T19:26:30;11.60;99.90
4429;DHT22;2227;47.810;8.810;2023-10-31T19:28:57;11.60;99.90
4429;DHT22;2227;47.810;8.810;2023-10-31T19:31:25;11.70;99.90
4429;DHT22;2227;47.810;8.810;2023-10-31T19:33:52;11.70;99.90
4429;DHT22;2227;47.810;8.810;2023-10-31T19:36:22;11.60;99.90
4429;DHT22;2227;47.810;8.810;2023-10-31T19:38:49;11.40;99.90
4429;DHT22;2227;47.810;8.810;2023-10-31T19:41:16;11.50;99.90
4429;DHT22;2227;47.810;8.810;2023-10-31T19:43:43;11.40;99.90
4429;DHT22;2227;47.810;8.810;2023-10-31T19:46:10;11.50;99.90
4429;DHT22;2227;47.810;8.810;2023-10-31T19:48:37;11.50;99.90
4429;DHT22;2227;47.810;8.810;2023-10-31T19:51:06;11.40;99.90
4429;DHT22;2227;47.810;8.810;2023-10-31T19:53:33;11.40;99.90
4429;DHT22;2227;47.810;8.810;2023-10-31T19:56:00;11.30;99.90
4429;DHT22;2227;47.810;8.810;2023-10-31T19:58:27;11.30;99.90
4429;DHT22;2227;47.810;8.810;2023-10-31T20:00:55;11.30;99.90
4429;DHT22;2227;47.810;8.810;2023-10-31T20:03:22;11.20;99.90
4429;DHT22;2227;47.810;8.810;2023-10-31T20:05:49;11.20;99.90
4429;DHT22;2227;47.810;8.810;2023-10-31T20:08:16;11.10;99.90
4429;DHT22;2227;47.810;8.810;2023-10-31T20:10:43;10.90;99.90
4429;DHT22;2227;47.810;8.810;2023-10-31T20:13:10;10.90;99.90
4429;DHT22;2227;47.810;8.810;2023-10-31T20:15:37;10.80;99.90
4429;DHT22;2227;47.810;8.810;2023-10-31T20:18:04;10.80;99.90
4429;DHT22;2227;47.810;8.810;2023-10-31T20:20:32;10.70;99.90
4429;DHT22;2227;47.810;8.810;2023-10-31T20:22:59;10.80;99.90
4429;DHT22;2227;47.810;8.810;2023-10-31T20:25:26;10.80;99.90
4429;DHT22;2227;47.810;8.810;2023-10-31T20:27:52;10.70;99.90
4429;DHT22;2227;47.810;8.810;2023-10-31T20:30:19;10.60;99.90
4429;DHT22;2227;47.810;8.810;2023-10-31T20:32:47;10.60;99.90
4429;DHT22;2227;47.810;8.810;2023-10-31T20:35:17;10.50;99.90
4429;DHT22;2227;47.810;8.810;2023-10-31T20:37:43;10.50;99.90
4429;DHT22;2227;47.810;8.810;2023-10-31T20:40:11;10.40;99.90
4429;DHT22;2227;47.810;8.810;2023-10-31T20:42:39;10.20;99.90
4429;DHT22;2227;47.810;8.810;2023-10-31T20:45:06;10.10;99.90
4429;DHT22;2227;47.810;8.810;2023-10-31T20:47:33;10.20;99.90
4429;DHT22;2227;47.810;8.810;2023-10-31T20:50:05;10.30;99.90
4429;DHT22;2227;47.810;8.810;2023-10-31T20:52:33;10.30;99.90
4429;DHT22;2227;47.810;8.810;2023-10-31T20:55:01;10.30;99.90
4429;DHT22;2227;47.810;8.810;2023-10-31T20:57:28;10.20;99.90
4429;DHT22;2227;47.810;8.810;2023-10-31T20:59:54;10.10;99.90
4429;DHT22;2227;47.810;8.810;2023-10-31T21:02:21;10.20;99.90
4429;DHT22;2227;47.810;8.810;2023-10-31T21:04:48;10.30;99.90